Time;durP1;ratioP1;P1;durP2;ratioP2;P2;SDS_P1;SDS_P2;PMS_P1;PMS_P2;Temp;Humidity;BMP_temperature;BMP_pressure;BME280_temperature;BME280_humidity;BME280_pressure;Samples;Min_cycle;Max_cycle;Signal;HPM_P1;HPM_P2
2024/03/08 00:01:38;;;;;;;38.45;34.53;;;;;;;;;;4999554;28;20214;-88
2024/03/08 00:04:06;;;;;;;38.53;34.88;;;;;;;;;;4999614;28;20262;-87
2024/03/08 00:06:33;;;;;;;37.10;33.38;;;;;;;;;;5007129;28;20308;-86
2024/03/08 00:09:01;;;;;;;36.80;33.17;;;;;;;;;;5019478;28;20217;-88
2024/03/08 00:11:28;;;;;;;38.60;33.15;;;;;;;;;;5003365;28;20198;-87
2024/03/08 00:13:55;;;;;;;37.13;33.53;;;;;;;;;;4999320;28;20225;-87
2024/03/08 00:16:23;;;;;;;39.15;35.17;;;;;;;;;;5034577;28;20699;-87
2024/03/08 00:18:50;;;;;;;37.97;34.53;;;;;;;;;;5011399;28;20209;-88
2024/03/08 00:21:17;;;;;;;40.33;36.25;;;;;;;;;;5011429;28;20289;-86
2024/03/08 00:23:44;;;;;;;37.85;34.05;;;;;;;;;;5012161;28;20226;-87
2024/03/08 00:26:12;;;;;;;38.47;34.67;;;;;;;;;;4999450;28;20672;-89
2024/03/08 00:28:39;;;;;;;37.80;33.90;;;;;;;;;;5017540;28;20358;-86
2024/03/08 00:31:06;;;;;;;39.33;35.72;;;;;;;;;;5017923;28;20267;-86
2024/03/08 00:33:33;;;;;;;40.28;36.05;;;;;;;;;;4999564;28;20226;-87
2024/03/08 00:36:00;;;;;;;38.17;34.40;;;;;;;;;;4996632;28;20269;-88
2024/03/08 00:38:27;;;;;;;40.65;36.55;;;;;;;;;;5000425;28;20259;-88
2024/03/08 00:40:56;;;;;;;38.40;34.58;;;;;;;;;;5019057;28;20654;-87
2024/03/08 00:43:25;;;;;;;38.20;34.60;;;;;;;;;;5020205;28;20232;-86
2024/03/08 00:45:51;;;;;;;38.08;34.35;;;;;;;;;;5023613;28;20259;-87
2024/03/08 00:48:18;;;;;;;40.60;36.45;;;;;;;;;;5008044;28;20213;-87
2024/03/08 00:50:46;;;;;;;39.72;35.60;;;;;;;;;;5026355;28;20209;-87
2024/03/08 00:53:13;;;;;;;37.80;34.20;;;;;;;;;;5027055;28;20251;-87
2024/03/08 00:55:40;;;;;;;36.97;33.58;;;;;;;;;;5027758;28;20213;-87
2024/03/08 00:58:08;;;;;;;37.75;34.08;;;;;;;;;;5008281;28;20202;-86
2024/03/08 01:00:38;;;;;;;38.45;35.08;;;;;;;;;;5002941;28;20213;-87
2024/03/08 01:03:06;;;;;;;38.78;34.80;;;;;;;;;;5003346;28;20206;-87
2024/03/08 01:05:33;;;;;;;37.80;34.15;;;;;;;;;;5003317;28;20221;-87
2024/03/08 01:08:00;;;;;;;36.45;32.85;;;;;;;;;;5016882;28;20217;-87
2024/03/08 01:10:27;;;;;;;37.65;34.10;;;;;;;;;;5010303;28;20214;-88
2024/03/08 01:12:56;;;;;;;40.50;36.25;;;;;;;;;;5020599;28;20241;-87
2024/03/08 01:15:23;;;;;;;41.00;36.95;;;;;;;;;;5022119;28;20221;-87
2024/03/08 01:17:52;;;;;;;39.50;35.60;;;;;;;;;;5009294;28;20203;-87
2024/03/08 01:20:19;;;;;;;39.78;35.72;;;;;;;;;;5001977;28;20206;-87
2024/03/08 01:22:46;;;;;;;42.75;35.28;;;;;;;;;;5001651;28;20277;-87
2024/03/08 01:25:18;;;;;;;40.85;36.55;;;;;;;;;;5002361;28;20288;-87
2024/03/08 01:27:45;;;;;;;44.88;40.47;;;;;;;;;;5002681;28;20229;-88
2024/03/08 01:30:12;;;;;;;40.65;36.75;;;;;;;;;;5002678;28;20206;-88
2024/03/08 01:32:39;;;;;;;37.97;34.17;;;;;;;;;;5001911;28;20205;-87
2024/03/08 01:35:10;;;;;;;40.05;35.85;;;;;;;;;;5002232;28;20252;-86
2024/03/08 01:37:37;;;;;;;36.63;33.03;;;;;;;;;;5002781;28;20206;-88
2024/03/08 01:40:04;;;;;;;33.00;29.95;;;;;;;;;;5018578;28;20662;-87
2024/03/08 01:42:31;;;;;;;41.42;37.10;;;;;;;;;;5021516;28;20198;-87
2024/03/08 01:44:58;;;;;;;38.42;34.58;;;;;;;;;;5021441;28;20651;-87
2024/03/08 01:47:25;;;;;;;36.35;32.65;;;;;;;;;;5013522;28;20244;-87
2024/03/08 01:49:52;;;;;;;41.90;37.47;;;;;;;;;;5002160;28;20241;-88
2024/03/08 01:52:23;;;;;;;42.72;38.22;;;;;;;;;;5015390;28;20209;-87
2024/03/08 01:54:51;;;;;;;38.55;34.97;;;;;;;;;;5021435;28;20661;-86
2024/03/08 01:57:18;;;;;;;43.35;38.97;;;;;;;;;;5015886;28;20642;-87
2024/03/08 01:59:45;;;;;;;36.35;33.03;;;;;;;;;;5016889;28;20520;-87
2024/03/08 02:02:13;;;;;;;36.95;33.53;;;;;;;;;;5006320;28;20205;-87
2024/03/08 02:04:40;;;;;;;39.33;35.33;;;;;;;;;;5013888;28;20228;-86
2024/03/08 02:07:07;;;;;;;38.47;34.38;;;;;;;;;;5019335;28;20279;-87
2024/03/08 02:09:36;;;;;;;39.50;35.65;;;;;;;;;;5020184;28;20209;-88
2024/03/08 02:12:03;;;;;;;37.90;33.80;;;;;;;;;;5018749;28;20815;-86
2024/03/08 02:14:31;;;;;;;42.63;38.47;;;;;;;;;;5018888;28;20225;-88
2024/03/08 02:17:01;;;;;;;36.55;32.72;;;;;;;;;;5019035;28;20226;-86
2024/03/08 02:19:28;;;;;;;40.28;36.15;;;;;;;;;;5016880;28;20214;-87
2024/03/08 02:21:57;;;;;;;45.47;40.67;;;;;;;;;;5002909;28;20280;-87
2024/03/08 02:24:24;;;;;;;39.72;35.40;;;;;;;;;;4999358;28;20242;-88
2024/03/08 02:26:51;;;;;;;40.63;36.58;;;;;;;;;;5001987;28;20238;-87
2024/03/08 02:29:19;;;;;;;43.45;38.85;;;;;;;;;;4999879;28;20198;-87
2024/03/08 02:31:46;;;;;;;39.35;35.63;;;;;;;;;;4999014;28;20211;-87
2024/03/08 02:34:13;;;;;;;37.35;33.63;;;;;;;;;;4998804;28;20248;-87
2024/03/08 02:36:41;;;;;;;46.78;42.15;;;;;;;;;;5008499;28;20214;-88
2024/03/08 02:39:10;;;;;;;41.50;37.05;;;;;;;;;;5019723;28;20257;-87
2024/03/08 02:41:37;;;;;;;38.08;34.60;;;;;;;;;;5018627;28;20220;-87
2024/03/08 02:44:04;;;;;;;39.92;35.42;;;;;;;;;;5018552;28;20598;-86
2024/03/08 02:46:31;;;;;;;41.38;37.28;;;;;;;;;;5018467;28;20221;-87
2024/03/08 02:48:58;;;;;;;41.22;36.85;;;;;;;;;;4999271;28;20547;-88
2024/03/08 02:51:27;;;;;;;41.40;37.25;;;;;;;;;;4997960;28;20621;-87
2024/03/08 02:53:54;;;;;;;40.10;36.22;;;;;;;;;;4998545;28;20272;-86
2024/03/08 02:56:22;;;;;;;41.60;37.60;;;;;;;;;;5014444;28;20217;-87
2024/03/08 02:58:49;;;;;;;41.00;36.72;;;;;;;;;;5011364;28;20237;-87
2024/03/08 03:01:16;;;;;;;43.53;39.10;;;;;;;;;;4998519;28;20202;-88
2024/03/08 03:03:43;;;;;;;39.95;35.97;;;;;;;;;;5006965;28;20240;-86
2024/03/08 03:06:10;;;;;;;42.60;38.08;;;;;;;;;;5018656;28;20264;-87
2024/03/08 03:08:38;;;;;;;41.90;37.95;;;;;;;;;;5017702;28;20248;-87
2024/03/08 03:11:05;;;;;;;41.00;36.50;;;;;;;;;;5017563;28;20236;-87
2024/03/08 03:13:33;;;;;;;40.63;36.42;;;;;;;;;;5017635;28;20709;-88
2024/03/08 03:16:00;;;;;;;41.40;36.83;;;;;;;;;;5018567;28;20205;-86
2024/03/08 03:18:27;;;;;;;42.97;38.58;;;;;;;;;;5010515;28;20604;-88
2024/03/08 03:20:56;;;;;;;43.40;39.13;;;;;;;;;;5012215;28;20264;-87
2024/03/08 03:23:23;;;;;;;44.45;38.33;;;;;;;;;;5017228;28;20257;-88
2024/03/08 03:25:50;;;;;;;42.95;38.30;;;;;;;;;;5017919;28;20288;-87
2024/03/08 03:28:21;;;;;;;40.25;36.28;;;;;;;;;;5011842;28;20241;-86
2024/03/08 03:30:50;;;;;;;39.05;35.00;;;;;;;;;;4997512;28;20284;-87
2024/03/08 03:33:17;;;;;;;40.25;36.33;;;;;;;;;;4997861;28;20217;-86
2024/03/08 03:35:45;;;;;;;42.38;37.88;;;;;;;;;;4998116;28;20210;-88
2024/03/08 03:38:14;;;;;;;42.40;37.80;;;;;;;;;;5000519;28;20200;-88
2024/03/08 03:40:42;;;;;;;40.05;36.05;;;;;;;;;;4997123;28;20292;-88
2024/03/08 03:43:09;;;;;;;39.78;35.78;;;;;;;;;;4996988;28;20746;-87
2024/03/08 03:45:36;;;;;;;44.60;39.83;;;;;;;;;;4997913;28;20230;-88
2024/03/08 03:48:06;;;;;;;41.33;37.08;;;;;;;;;;5000014;28;20209;-86
2024/03/08 03:50:34;;;;;;;45.38;39.70;;;;;;;;;;4997836;28;20360;-89
2024/03/08 03:53:01;;;;;;;40.88;36.55;;;;;;;;;;5000633;28;20205;-88
2024/03/08 03:55:29;;;;;;;46.42;37.25;;;;;;;;;;5018473;28;20215;-88
2024/03/08 03:57:58;;;;;;;43.83;39.05;;;;;;;;;;5017679;28;20212;-87
2024/03/08 04:00:26;;;;;;;37.50;33.47;;;;;;;;;;5011225;28;20277;-87
2024/03/08 04:02:54;;;;;;;39.78;30.38;;;;;;;;;;5017055;28;20213;-88
2024/03/08 04:05:25;;;;;;;39.00;34.78;;;;;;;;;;5002389;28;20254;-87
2024/03/08 04:07:52;;;;;;;42.85;38.33;;;;;;;;;;4998331;28;20921;-88
2024/03/08 04:10:19;;;;;;;41.35;37.08;;;;;;;;;;5014996;28;20213;-88
2024/03/08 04:12:47;;;;;;;43.50;39.28;;;;;;;;;;5017249;28;20213;-87
2024/03/08 04:15:14;;;;;;;41.40;37.00;;;;;;;;;;4997342;28;20226;-88
2024/03/08 04:17:41;;;;;;;43.08;38.83;;;;;;;;;;4997438;28;20202;-87
2024/03/08 04:20:09;;;;;;;41.78;37.38;;;;;;;;;;4994779;28;20305;-88
2024/03/08 04:22:39;;;;;;;42.20;37.63;;;;;;;;;;5008236;28;20214;-87
2024/03/08 04:25:06;;;;;;;42.13;37.53;;;;;;;;;;5016166;28;20229;-86
2024/03/08 04:27:34;;;;;;;39.75;35.42;;;;;;;;;;5016516;28;20221;-87
2024/03/08 04:30:01;;;;;;;45.15;40.38;;;;;;;;;;5010363;28;20206;-86
2024/03/08 04:32:29;;;;;;;46.35;41.50;;;;;;;;;;4996247;28;20272;-87
2024/03/08 04:34:56;;;;;;;39.97;35.03;;;;;;;;;;4996581;28;20225;-87
2024/03/08 04:37:23;;;;;;;41.85;37.50;;;;;;;;;;4996748;28;20210;-87
2024/03/08 04:39:52;;;;;;;35.08;31.58;;;;;;;;;;4997010;28;20311;-88
2024/03/08 04:42:19;;;;;;;43.47;38.08;;;;;;;;;;4997446;28;20210;-88
2024/03/08 04:44:46;;;;;;;45.90;37.42;;;;;;;;;;5010441;28;20231;-87
2024/03/08 04:47:14;;;;;;;40.22;36.17;;;;;;;;;;5016725;28;20631;-88
2024/03/08 04:49:41;;;;;;;45.17;40.13;;;;;;;;;;5016573;28;20209;-87
2024/03/08 04:52:08;;;;;;;44.45;39.20;;;;;;;;;;5016519;28;20213;-87
2024/03/08 04:54:35;;;;;;;41.88;37.67;;;;;;;;;;5016730;28;20717;-87
2024/03/08 04:57:04;;;;;;;43.25;37.55;;;;;;;;;;5017408;28;20198;-87
2024/03/08 04:59:31;;;;;;;46.05;41.08;;;;;;;;;;5017814;28;20239;-88
2024/03/08 05:01:58;;;;;;;42.63;38.33;;;;;;;;;;5016870;28;20260;-88
2024/03/08 05:04:25;;;;;;;45.17;40.35;;;;;;;;;;5014493;28;20248;-87
2024/03/08 05:06:53;;;;;;;42.22;37.60;;;;;;;;;;5016314;28;20654;-86
2024/03/08 05:09:20;;;;;;;46.13;37.20;;;;;;;;;;5003405;28;20241;-86
2024/03/08 05:11:48;;;;;;;44.15;39.45;;;;;;;;;;4997535;28;20233;-87
2024/03/08 05:14:18;;;;;;;42.58;37.28;;;;;;;;;;4997510;28;20226;-86
2024/03/08 05:16:48;;;;;;;45.47;40.60;;;;;;;;;;4999066;28;20237;-87
2024/03/08 05:19:16;;;;;;;46.03;36.92;;;;;;;;;;4999052;28;20281;-87
2024/03/08 05:21:43;;;;;;;40.38;36.08;;;;;;;;;;5003215;28;20220;-87
2024/03/08 05:24:10;;;;;;;36.30;32.47;;;;;;;;;;5020090;28;20232;-87
2024/03/08 05:26:38;;;;;;;34.92;31.27;;;;;;;;;;5022990;28;20300;-87
2024/03/08 05:29:05;;;;;;;43.45;38.42;;;;;;;;;;5022951;28;20296;-88
2024/03/08 05:31:37;;;;;;;40.90;36.63;;;;;;;;;;5020520;28;20217;-87
2024/03/08 05:34:04;;;;;;;42.47;37.92;;;;;;;;;;5020156;28;20272;-87
2024/03/08 05:36:32;;;;;;;41.75;35.80;;;;;;;;;;5019965;28;20209;-87
2024/03/08 05:38:59;;;;;;;44.80;38.55;;;;;;;;;;5020460;28;20229;-87
2024/03/08 05:41:26;;;;;;;41.35;36.35;;;;;;;;;;5019281;28;20209;-87
2024/03/08 05:43:53;;;;;;;49.67;38.03;;;;;;;;;;5018082;28;20296;-87
2024/03/08 05:46:22;;;;;;;34.63;31.00;;;;;;;;;;5017422;28;20205;-87
2024/03/08 05:48:50;;;;;;;44.00;39.33;;;;;;;;;;5007001;28;20225;-87
2024/03/08 05:51:19;;;;;;;43.45;38.88;;;;;;;;;;5014493;28;20268;-87
2024/03/08 05:53:46;;;;;;;41.78;37.33;;;;;;;;;;5009735;28;20230;-87
2024/03/08 05:56:13;;;;;;;47.38;42.58;;;;;;;;;;5014174;28;20218;-87
2024/03/08 05:58:40;;;;;;;37.72;33.72;;;;;;;;;;5018924;28;20928;-87
2024/03/08 06:01:07;;;;;;;33.38;29.98;;;;;;;;;;5018897;28;20205;-87
2024/03/08 06:03:34;;;;;;;41.72;37.63;;;;;;;;;;5011072;28;20323;-87
2024/03/08 06:06:03;;;;;;;45.60;41.00;;;;;;;;;;4999263;28;20203;-88
2024/03/08 06:08:30;;;;;;;42.13;37.72;;;;;;;;;;4998887;28;20225;-86
2024/03/08 06:10:59;;;;;;;37.83;33.75;;;;;;;;;;4998521;28;20293;-88
2024/03/08 06:13:25;;;;;;;43.15;38.47;;;;;;;;;;5005492;28;20225;-88
2024/03/08 06:15:52;;;;;;;43.83;38.17;;;;;;;;;;5010536;28;20609;-87
2024/03/08 06:18:20;;;;;;;48.83;43.17;;;;;;;;;;5016419;28;20205;-81
2024/03/08 06:20:47;;;;;;;43.28;38.42;;;;;;;;;;5011208;28;20277;-83
2024/03/08 06:23:17;;;;;;;46.42;39.10;;;;;;;;;;5010612;28;20724;-84
2024/03/08 06:25:44;;;;;;;50.78;42.97;;;;;;;;;;5000142;28;20230;-87
2024/03/08 06:28:11;;;;;;;44.85;40.15;;;;;;;;;;5017927;28;20229;-88
2024/03/08 06:30:38;;;;;;;37.20;33.45;;;;;;;;;;5016624;28;20259;-83
2024/03/08 06:33:06;;;;;;;44.92;37.95;;;;;;;;;;5016403;28;20255;-82
2024/03/08 06:35:34;;;;;;;50.08;41.55;;;;;;;;;;5015317;28;20217;-82
2024/03/08 06:38:01;;;;;;;44.70;39.85;;;;;;;;;;5016082;28;20259;-81
2024/03/08 06:40:30;;;;;;;44.20;39.42;;;;;;;;;;5003438;28;20598;-83
2024/03/08 06:42:57;;;;;;;42.03;37.10;;;;;;;;;;4995027;28;20297;-81
2024/03/08 06:45:25;;;;;;;42.00;37.90;;;;;;;;;;4996012;28;20715;-82
2024/03/08 06:47:52;;;;;;;45.30;38.22;;;;;;;;;;4995357;28;20711;-81
2024/03/08 06:50:19;;;;;;;43.17;38.60;;;;;;;;;;4996340;28;20210;-81
2024/03/08 06:52:50;;;;;;;42.45;37.80;;;;;;;;;;5002984;28;20716;-83
2024/03/08 06:55:17;;;;;;;40.78;36.25;;;;;;;;;;5015314;28;20671;-81
2024/03/08 06:57:46;;;;;;;45.25;40.45;;;;;;;;;;5015668;28;20255;-81
2024/03/08 07:00:18;;;;;;;44.78;40.08;;;;;;;;;;5015363;28;20213;-81
2024/03/08 07:02:46;;;;;;;47.10;42.00;;;;;;;;;;5031164;28;20711;-81
2024/03/08 07:05:21;;;;;;;41.17;36.75;;;;;;;;;;5034333;28;20221;-81
2024/03/08 07:07:49;;;;;;;42.80;38.22;;;;;;;;;;5012773;28;20237;-82
2024/03/08 07:10:16;;;;;;;43.60;37.17;;;;;;;;;;4996364;28;20206;-82
2024/03/08 07:12:43;;;;;;;44.83;39.97;;;;;;;;;;4995822;28;20210;-82
2024/03/08 07:15:14;;;;;;;41.20;37.13;;;;;;;;;;4995506;28;20237;-82
2024/03/08 07:17:44;;;;;;;43.00;38.40;;;;;;;;;;4996854;28;20620;-81
2024/03/08 07:20:18;;;;;;;47.03;40.00;;;;;;;;;;4995733;28;20214;-83
2024/03/08 07:22:47;;;;;;;45.75;40.80;;;;;;;;;;4995696;28;20216;-84
2024/03/08 07:25:24;;;;;;;45.75;40.70;;;;;;;;;;5004550;28;20225;-78
2024/03/08 07:27:52;;;;;;;45.55;39.63;;;;;;;;;;5000748;28;20222;-78
2024/03/08 07:33:06;;;;;;;44.50;39.72;;;;;;;;;;4994539;28;20268;-80
2024/03/08 07:35:36;;;;;;;32.85;29.80;;;;;;;;;;4995920;28;20204;-79
2024/03/08 07:38:04;;;;;;;46.03;41.17;;;;;;;;;;4995761;28;20633;-78
2024/03/08 07:40:31;;;;;;;36.17;32.63;;;;;;;;;;4995561;28;20369;-79
2024/03/08 07:42:59;;;;;;;42.83;38.45;;;;;;;;;;4995312;28;20202;-79
2024/03/08 07:45:27;;;;;;;34.08;30.77;;;;;;;;;;4994950;28;20217;-79
2024/03/08 07:47:55;;;;;;;46.95;40.78;;;;;;;;;;4995369;28;20210;-79
2024/03/08 07:50:22;;;;;;;35.55;31.85;;;;;;;;;;4997050;28;20221;-78
2024/03/08 07:52:49;;;;;;;44.97;40.25;;;;;;;;;;5002059;28;20213;-81
2024/03/08 07:55:16;;;;;;;35.97;32.38;;;;;;;;;;5013699;28;20233;-79
2024/03/08 07:57:43;;;;;;;44.13;39.55;;;;;;;;;;5014440;28;20748;-78
2024/03/08 08:00:11;;;;;;;41.47;37.38;;;;;;;;;;5015119;28;20249;-79
2024/03/08 08:02:39;;;;;;;45.35;40.40;;;;;;;;;;5012200;28;20244;-78
2024/03/08 08:05:06;;;;;;;44.20;39.88;;;;;;;;;;4993725;28;20226;-80
2024/03/08 08:07:33;;;;;;;42.08;37.50;;;;;;;;;;4994742;28;20256;-80
2024/03/08 08:10:00;;;;;;;47.05;40.67;;;;;;;;;;4995358;28;20210;-78
2024/03/08 08:12:28;;;;;;;44.55;40.28;;;;;;;;;;4994660;28;20214;-78
2024/03/08 08:14:56;;;;;;;42.95;38.35;;;;;;;;;;4994880;28;20230;-80
2024/03/08 08:17:23;;;;;;;42.63;34.45;;;;;;;;;;4995155;28;20697;-79
2024/03/08 08:19:51;;;;;;;39.03;35.13;;;;;;;;;;4994966;28;20543;-80
2024/03/08 08:22:19;;;;;;;40.38;33.35;;;;;;;;;;4993645;28;20266;-78
2024/03/08 08:24:46;;;;;;;44.83;40.17;;;;;;;;;;5003482;28;20237;-79
2024/03/08 08:27:14;;;;;;;46.58;41.58;;;;;;;;;;5013981;28;20617;-79
2024/03/08 08:29:41;;;;;;;36.83;32.88;;;;;;;;;;5013612;28;20268;-80
2024/03/08 08:32:08;;;;;;;44.90;40.25;;;;;;;;;;5005580;28;20237;-80
2024/03/08 08:34:36;;;;;;;42.42;37.95;;;;;;;;;;4993234;28;20257;-78
2024/03/08 08:37:05;;;;;;;34.80;31.48;;;;;;;;;;4998397;28;20264;-83
2024/03/08 08:39:32;;;;;;;34.63;30.55;;;;;;;;;;5015467;28;20605;-83
2024/03/08 08:41:59;;;;;;;41.03;36.92;;;;;;;;;;5014362;28;20212;-85
2024/03/08 08:44:27;;;;;;;38.30;34.60;;;;;;;;;;5015522;28;20225;-82
2024/03/08 08:46:54;;;;;;;43.88;39.40;;;;;;;;;;5015626;28;20280;-83
2024/03/08 08:49:21;;;;;;;42.53;38.38;;;;;;;;;;5015281;28;20228;-82
2024/03/08 08:51:50;;;;;;;43.83;39.67;;;;;;;;;;5014277;28;20293;-80
2024/03/08 08:54:20;;;;;;;41.92;37.83;;;;;;;;;;5013979;28;20320;-80
2024/03/08 08:56:48;;;;;;;43.70;39.05;;;;;;;;;;5014130;28;20190;-80
2024/03/08 08:59:19;;;;;;;44.42;39.75;;;;;;;;;;4997538;28;20225;-84
2024/03/08 09:01:57;;;;;;;40.75;36.80;;;;;;;;;;5014827;28;20713;-84
2024/03/08 09:04:24;;;;;;;41.75;37.70;;;;;;;;;;4999856;28;20226;-83
2024/03/08 09:06:52;;;;;;;40.45;35.90;;;;;;;;;;4999985;28;20210;-84
2024/03/08 09:09:21;;;;;;;40.58;36.58;;;;;;;;;;4999469;28;20292;-83
2024/03/08 09:11:49;;;;;;;44.40;40.20;;;;;;;;;;4999551;28;20273;-79
2024/03/08 09:14:17;;;;;;;43.13;38.42;;;;;;;;;;5008817;28;20252;-80
2024/03/08 09:16:47;;;;;;;42.90;38.30;;;;;;;;;;5037621;28;20209;-79
2024/03/08 09:19:14;;;;;;;41.70;37.10;;;;;;;;;;5037644;28;20201;-80
2024/03/08 09:21:43;;;;;;;43.70;39.50;;;;;;;;;;5037288;28;20208;-79
2024/03/08 09:24:10;;;;;;;44.40;39.93;;;;;;;;;;5038161;28;20315;-82
2024/03/08 09:26:40;;;;;;;39.17;35.35;;;;;;;;;;5026550;28;20484;-84
2024/03/08 09:29:07;;;;;;;43.17;39.08;;;;;;;;;;5019983;28;20241;-83
2024/03/08 09:31:35;;;;;;;40.38;36.47;;;;;;;;;;5007056;28;20206;-81
2024/03/08 09:34:02;;;;;;;40.20;36.42;;;;;;;;;;4999582;28;20234;-84
2024/03/08 09:36:32;;;;;;;44.53;40.15;;;;;;;;;;4998732;28;20265;-83
2024/03/08 09:39:00;;;;;;;38.05;34.55;;;;;;;;;;4999763;28;20575;-86
2024/03/08 09:41:27;;;;;;;42.30;37.70;;;;;;;;;;4998633;28;20291;-82
2024/03/08 09:43:59;;;;;;;41.03;37.13;;;;;;;;;;5003261;28;20468;-82
2024/03/08 09:46:26;;;;;;;38.40;34.80;;;;;;;;;;5010045;28;20220;-81
2024/03/08 09:48:54;;;;;;;40.65;36.75;;;;;;;;;;5017028;28;21015;-83
2024/03/08 09:51:23;;;;;;;38.83;35.10;;;;;;;;;;5012381;28;20202;-81
2024/03/08 09:53:54;;;;;;;36.88;33.13;;;;;;;;;;5017900;28;20221;-83
2024/03/08 09:56:21;;;;;;;41.00;37.10;;;;;;;;;;5009177;28;20256;-81
2024/03/08 09:59:19;;;;;;;42.63;38.30;;;;;;;;;;4997327;28;20210;-78
2024/03/08 10:01:52;;;;;;;40.67;36.50;;;;;;;;;;5000570;28;20480;-80
2024/03/08 10:04:19;;;;;;;40.53;36.63;;;;;;;;;;5016343;28;20476;-82
2024/03/08 10:06:47;;;;;;;37.00;33.10;;;;;;;;;;5015901;28;20469;-77
2024/03/08 10:09:15;;;;;;;39.63;35.73;;;;;;;;;;5013429;28;20237;-80
2024/03/08 10:11:50;;;;;;;39.77;36.03;;;;;;;;;;5015898;28;20463;-78
2024/03/08 10:14:27;;;;;;;34.42;31.33;;;;;;;;;;5015584;28;20464;-79
2024/03/08 10:16:59;;;;;;;40.17;36.47;;;;;;;;;;5013607;28;20213;-79
2024/03/08 10:19:29;;;;;;;40.17;36.17;;;;;;;;;;5017274;28;20465;-80
2024/03/08 10:21:58;;;;;;;39.33;35.50;;;;;;;;;;5016678;28;20514;-78
2024/03/08 10:24:42;;;;;;;36.37;33.10;;;;;;;;;;5016298;28;20229;-80
2024/03/08 10:27:09;;;;;;;40.03;36.53;;;;;;;;;;5016231;28;20433;-80
2024/03/08 10:29:38;;;;;;;37.27;33.97;;;;;;;;;;5014292;28;21062;-79
2024/03/08 10:32:09;;;;;;;37.83;34.33;;;;;;;;;;5020734;28;20514;-79
2024/03/08 10:34:37;;;;;;;34.60;31.38;;;;;;;;;;5035977;28;20526;-80
2024/03/08 10:37:05;;;;;;;40.03;36.28;;;;;;;;;;5023793;28;20716;-79
2024/03/08 10:39:36;;;;;;;37.60;34.20;;;;;;;;;;5016342;28;20210;-80
2024/03/08 10:42:07;;;;;;;38.53;34.67;;;;;;;;;;5024621;28;20984;-80
2024/03/08 10:44:41;;;;;;;32.43;29.33;;;;;;;;;;4996487;28;20490;-80
2024/03/08 10:47:19;;;;;;;33.50;30.30;;;;;;;;;;4996790;28;20427;-81
2024/03/08 10:49:52;;;;;;;34.70;31.60;;;;;;;;;;5014847;28;20476;-80
2024/03/08 10:52:20;;;;;;;36.97;33.60;;;;;;;;;;5002540;28;20460;-80
2024/03/08 10:54:51;;;;;;;40.83;37.27;;;;;;;;;;5013436;28;20504;-81
2024/03/08 10:57:20;;;;;;;38.10;34.70;;;;;;;;;;5014436;28;20575;-79
2024/03/08 10:59:49;;;;;;;39.53;36.03;;;;;;;;;;5000798;28;20484;-79
2024/03/08 11:02:23;;;;;;;33.40;30.70;;;;;;;;;;5008945;28;20468;-80
2024/03/08 11:04:54;;;;;;;36.47;33.07;;;;;;;;;;5015290;28;20480;-80
2024/03/08 11:07:22;;;;;;;35.20;32.13;;;;;;;;;;5015496;28;20440;-80
2024/03/08 11:09:50;;;;;;;35.60;32.40;;;;;;;;;;5015822;28;20546;-80
2024/03/08 11:12:19;;;;;;;37.67;34.57;;;;;;;;;;4997823;28;20488;-79
2024/03/08 11:14:48;;;;;;;36.80;33.07;;;;;;;;;;5003187;28;20540;-79
2024/03/08 11:17:17;;;;;;;36.03;32.93;;;;;;;;;;4996845;28;20453;-79
2024/03/08 11:19:48;;;;;;;37.47;33.95;;;;;;;;;;5015492;28;20543;-79
2024/03/08 11:22:23;;;;;;;35.60;32.60;;;;;;;;;;5021804;28;20279;-79
2024/03/08 11:24:51;;;;;;;35.77;32.17;;;;;;;;;;5020096;28;20503;-81
2024/03/08 11:27:20;;;;;;;35.77;32.67;;;;;;;;;;5011975;28;20500;-79
2024/03/08 11:29:47;;;;;;;37.40;34.10;;;;;;;;;;4994874;28;20876;-80
2024/03/08 11:32:17;;;;;;;34.93;31.87;;;;;;;;;;4995189;28;20481;-79
2024/03/08 11:34:44;;;;;;;34.03;31.00;;;;;;;;;;4996090;28;20473;-79
2024/03/08 11:37:17;;;;;;;33.40;30.10;;;;;;;;;;5001181;28;20456;-78
2024/03/08 11:39:49;;;;;;;31.57;28.77;;;;;;;;;;4995119;28;20436;-80
2024/03/08 11:42:17;;;;;;;38.03;34.87;;;;;;;;;;4999010;28;20839;-78
2024/03/08 11:44:44;;;;;;;39.20;35.57;;;;;;;;;;4999088;28;20992;-80
2024/03/08 11:47:12;;;;;;;38.30;34.90;;;;;;;;;;5014552;28;20511;-79
2024/03/08 11:49:44;;;;;;;35.60;32.43;;;;;;;;;;5014894;28;20484;-80
2024/03/08 11:52:13;;;;;;;37.90;34.63;;;;;;;;;;5005143;28;20479;-79
2024/03/08 11:54:43;;;;;;;39.73;36.07;;;;;;;;;;4993900;28;20481;-79
2024/03/08 11:57:10;;;;;;;34.53;31.33;;;;;;;;;;4995100;28;20533;-79
2024/03/08 11:59:38;;;;;;;38.77;35.00;;;;;;;;;;4994960;28;20451;-80
2024/03/08 12:02:05;;;;;;;38.40;34.90;;;;;;;;;;4994032;28;20453;-80
2024/03/08 12:04:35;;;;;;;41.60;37.60;;;;;;;;;;5009436;28;20879;-78
2024/03/08 12:07:08;;;;;;;39.47;35.90;;;;;;;;;;5014228;28;20456;-79
2024/03/08 12:09:36;;;;;;;39.77;36.27;;;;;;;;;;5006831;28;20487;-83
2024/03/08 12:12:05;;;;;;;39.97;36.37;;;;;;;;;;5017015;28;20453;-82
2024/03/08 12:14:34;;;;;;;42.43;38.47;;;;;;;;;;5016624;28;20476;-79
2024/03/08 12:17:04;;;;;;;38.43;34.93;;;;;;;;;;5016363;28;20464;-80
2024/03/08 12:19:32;;;;;;;39.93;36.03;;;;;;;;;;5016926;28;20457;-80
2024/03/08 12:22:10;;;;;;;38.67;35.00;;;;;;;;;;5015690;28;20448;-82
2024/03/08 12:24:39;;;;;;;36.60;33.20;;;;;;;;;;5015206;28;20488;-79
2024/03/08 12:27:22;;;;;;;36.50;32.73;;;;;;;;;;5005291;28;20776;-83
2024/03/08 12:29:51;;;;;;;37.83;34.70;;;;;;;;;;5006779;28;20492;-85
2024/03/08 12:32:18;;;;;;;39.97;36.47;;;;;;;;;;5004568;28;20457;-83
2024/03/08 12:34:53;;;;;;;38.33;34.70;;;;;;;;;;4998321;28;20471;-86
2024/03/08 12:37:23;;;;;;;36.57;33.27;;;;;;;;;;4998808;28;20899;-84
2024/03/08 12:39:50;;;;;;;35.00;32.03;;;;;;;;;;4999452;28;20450;-83
2024/03/08 12:42:21;;;;;;;36.90;33.90;;;;;;;;;;5001178;28;20980;-85
2024/03/08 12:47:56;;;;;;;37.53;34.53;;;;;;;;;;5013174;28;20453;-81
2024/03/08 12:50:25;;;;;;;32.07;29.47;;;;;;;;;;5023649;28;20550;-82
2024/03/08 12:52:55;;;;;;;35.77;32.80;;;;;;;;;;5007735;28;20441;-82
2024/03/08 12:55:22;;;;;;;35.03;31.83;;;;;;;;;;5019205;28;20560;-83
2024/03/08 12:57:49;;;;;;;36.67;32.80;;;;;;;;;;5019456;28;20535;-82
2024/03/08 13:00:23;;;;;;;32.80;29.73;;;;;;;;;;5018902;28;20422;-82
2024/03/08 13:02:51;;;;;;;34.13;30.67;;;;;;;;;;4999593;28;20428;-83
2024/03/08 13:05:20;;;;;;;34.00;31.20;;;;;;;;;;5010256;28;20469;-82
2024/03/08 13:07:48;;;;;;;32.33;29.70;;;;;;;;;;4998727;28;20453;-82
2024/03/08 13:10:16;;;;;;;35.40;32.40;;;;;;;;;;4998944;28;20489;-83
2024/03/08 13:12:45;;;;;;;34.83;32.07;;;;;;;;;;5010785;28;20480;-89
2024/03/08 13:15:15;;;;;;;39.83;36.27;;;;;;;;;;5014560;28;20543;-85
2024/03/08 13:17:44;;;;;;;36.80;33.90;;;;;;;;;;5011605;28;20495;-83
2024/03/08 13:20:16;;;;;;;38.67;35.57;;;;;;;;;;5004339;28;20806;-83
2024/03/08 13:22:47;;;;;;;37.30;33.70;;;;;;;;;;5002302;28;20499;-85
2024/03/08 13:25:14;;;;;;;37.83;34.73;;;;;;;;;;5024840;28;20491;-87
2024/03/08 13:27:42;;;;;;;37.77;34.37;;;;;;;;;;5015006;28;20451;-83
2024/03/08 13:30:14;;;;;;;37.10;33.27;;;;;;;;;;5015135;28;20488;-84
2024/03/08 13:32:43;;;;;;;35.80;32.80;;;;;;;;;;5020056;28;20479;-85
2024/03/08 13:35:13;;;;;;;37.87;34.37;;;;;;;;;;5016476;28;20971;-85
2024/03/08 13:37:40;;;;;;;36.90;33.50;;;;;;;;;;5024831;28;20437;-85
2024/03/08 13:42:51;;;;;;;39.20;35.63;;;;;;;;;;5010043;28;20974;-84
2024/03/08 13:45:22;;;;;;;38.50;35.00;;;;;;;;;;5014449;28;20468;-87
2024/03/08 13:47:51;;;;;;;37.07;33.40;;;;;;;;;;5020372;28;20457;-86
2024/03/08 13:50:21;;;;;;;38.10;34.90;;;;;;;;;;5021078;28;21113;-84
2024/03/08 13:52:51;;;;;;;38.40;34.87;;;;;;;;;;5017150;28;20445;-83
2024/03/08 13:55:21;;;;;;;37.87;34.13;;;;;;;;;;5014801;28;21074;-82
2024/03/08 13:57:50;;;;;;;37.27;33.97;;;;;;;;;;5012717;28;21000;-84
2024/03/08 14:00:18;;;;;;;39.90;36.60;;;;;;;;;;5009428;28;20459;-84
2024/03/08 14:02:45;;;;;;;36.97;33.60;;;;;;;;;;5015766;28;20484;-82
2024/03/08 14:05:14;;;;;;;34.10;31.10;;;;;;;;;;5017253;28;20484;-82
2024/03/08 14:07:41;;;;;;;40.23;36.60;;;;;;;;;;5015182;28;20431;-82
2024/03/08 14:10:09;;;;;;;34.80;31.63;;;;;;;;;;5017530;28;20499;-81
2024/03/08 14:12:39;;;;;;;34.57;31.37;;;;;;;;;;5017703;28;20463;-82
2024/03/08 14:15:06;;;;;;;36.20;32.50;;;;;;;;;;5017744;28;20482;-82
2024/03/08 14:17:34;;;;;;;36.63;32.97;;;;;;;;;;5017794;28;20457;-84
2024/03/08 14:20:03;;;;;;;38.20;34.90;;;;;;;;;;5017852;28;20502;-82
2024/03/08 14:22:31;;;;;;;33.37;30.40;;;;;;;;;;5017287;28;20531;-83
2024/03/08 14:24:58;;;;;;;30.90;28.20;;;;;;;;;;5017364;28;20478;-84
2024/03/08 14:27:27;;;;;;;34.40;31.30;;;;;;;;;;5017530;28;20457;-81
2024/03/08 14:29:57;;;;;;;33.20;30.13;;;;;;;;;;5017222;28;20818;-81
2024/03/08 14:32:25;;;;;;;33.47;30.47;;;;;;;;;;5017260;28;20444;-82